createdAt,value
2023-03-25T00:02:19.137Z,8.13
2023-03-25T00:04:51.894Z,8.50
2023-03-25T00:07:22.933Z,8.82
2023-03-25T00:09:52.971Z,9.07
2023-03-25T00:12:25.070Z,8.75
2023-03-25T00:14:58.539Z,8.57
2023-03-25T00:17:31.163Z,9.98
2023-03-25T00:20:02.555Z,7.93
2023-03-25T00:22:32.116Z,9.38
2023-03-25T00:25:01.712Z,8.15
2023-03-25T00:27:33.861Z,12.68
2023-03-25T00:30:03.427Z,7.75
2023-03-25T00:32:33.251Z,6.75
2023-03-25T00:35:02.790Z,6.65
2023-03-25T00:37:32.342Z,6.60
2023-03-25T00:40:01.888Z,8.55
2023-03-25T00:42:35.065Z,8.70
2023-03-25T00:45:04.634Z,8.55
2023-03-25T00:47:34.181Z,8.77
2023-03-25T00:50:03.960Z,7.60
2023-03-25T00:52:33.517Z,9.07
2023-03-25T00:55:03.072Z,6.95
2023-03-25T00:57:35.362Z,8.90
2023-03-25T01:00:06.531Z,7.32
2023-03-25T01:02:36.637Z,7.38
2023-03-25T01:05:07.243Z,6.97
2023-03-25T01:07:36.761Z,9.75
2023-03-25T01:10:07.272Z,6.60
2023-03-25T01:12:39.435Z,6.82
2023-03-25T01:15:10.718Z,5.82
2023-03-25T01:17:40.297Z,8.13
2023-03-25T01:20:11.762Z,6.97
2023-03-25T01:22:41.432Z,7.20
2023-03-25T01:25:11.580Z,7.78
2023-03-25T01:27:43.706Z,7.20
2023-03-25T01:30:15.025Z,8.40
2023-03-25T01:32:44.627Z,7.60
2023-03-25T01:35:14.267Z,9.00
2023-03-25T01:37:44.797Z,8.18
2023-03-25T01:40:21.199Z,8.82
2023-03-25T01:42:53.850Z,6.32
2023-03-25T01:45:29.876Z,8.50
2023-03-25T01:48:06.331Z,7.20
2023-03-25T01:50:37.328Z,7.07
2023-03-25T01:53:09.782Z,9.40
2023-03-25T01:55:41.446Z,9.25
2023-03-25T01:58:16.255Z,8.02
2023-03-25T02:00:48.662Z,8.25
2023-03-25T02:03:21.000Z,9.00
2023-03-25T02:05:57.712Z,9.43
2023-03-25T02:08:28.620Z,8.90
2023-03-25T02:10:58.368Z,10.30
2023-03-25T02:13:30.639Z,9.10
2023-03-25T02:16:14.078Z,9.15
2023-03-25T02:18:53.995Z,8.77
2023-03-25T02:21:50.317Z,8.23
2023-03-25T02:24:58.084Z,9.85
2023-03-25T02:27:46.092Z,9.80
2023-03-25T02:30:43.557Z,9.02
2023-03-25T02:33:45.793Z,9.13
2023-03-25T02:36:36.720Z,6.97
2023-03-25T02:39:15.276Z,6.95
2023-03-25T02:41:53.216Z,6.15
2023-03-25T02:44:32.883Z,8.77
2023-03-25T02:47:07.308Z,17.65
2023-03-25T02:49:39.381Z,13.27
2023-03-25T02:52:14.228Z,7.68
2023-03-25T02:54:47.889Z,9.95
2023-03-25T02:57:21.399Z,16.52
2023-03-25T02:59:54.301Z,13.07
2023-03-25T03:02:26.653Z,13.68
2023-03-25T03:04:58.825Z,8.85
2023-03-25T03:07:32.106Z,10.20
2023-03-25T03:10:13.608Z,10.13
2023-03-25T03:12:56.739Z,7.93
2023-03-25T03:15:39.862Z,10.15
2023-03-25T03:18:17.500Z,13.38
2023-03-25T03:20:58.221Z,10.85
2023-03-25T03:23:34.089Z,9.23
2023-03-25T03:26:12.090Z,11.63
2023-03-25T03:28:50.613Z,11.70
2023-03-25T03:31:48.362Z,9.57
2023-03-25T03:34:24.543Z,9.65
2023-03-25T03:39:31.907Z,10.35
2023-03-25T03:42:09.859Z,9.73
2023-03-25T03:44:43.385Z,10.25
2023-03-25T03:47:15.987Z,8.40
2023-03-25T03:49:49.714Z,10.88
2023-03-25T03:52:25.754Z,10.95
2023-03-25T03:54:59.335Z,8.25
2023-03-25T03:57:35.930Z,10.45
2023-03-25T04:00:10.114Z,10.05
2023-03-25T04:02:44.122Z,9.63
2023-03-25T04:05:16.989Z,10.00
2023-03-25T04:07:57.159Z,9.43
2023-03-25T04:10:34.995Z,9.60
2023-03-25T04:13:11.121Z,8.70
2023-03-25T04:18:12.245Z,9.98
2023-03-25T04:20:44.918Z,10.05
2023-03-25T04:23:17.279Z,7.63
2023-03-25T04:25:47.894Z,9.85
2023-03-25T04:28:20.471Z,7.10
2023-03-25T04:30:55.676Z,8.13
2023-03-25T04:33:25.565Z,8.80
2023-03-25T04:35:55.806Z,12.70
2023-03-25T04:38:25.475Z,9.80
2023-03-25T04:40:55.016Z,9.93
2023-03-25T04:43:28.552Z,7.47
2023-03-25T04:46:00.368Z,7.03
2023-03-25T04:48:32.761Z,9.52
2023-03-25T04:51:03.647Z,9.88
2023-03-25T04:53:33.328Z,7.95
2023-03-25T04:56:03.311Z,8.95
2023-03-25T04:58:37.086Z,10.70
2023-03-25T05:01:11.667Z,7.57
2023-03-25T05:03:41.676Z,10.77
2023-03-25T05:06:11.549Z,7.63
2023-03-25T05:08:41.078Z,8.70
2023-03-25T05:11:10.598Z,10.95
2023-03-25T05:13:42.715Z,7.82
2023-03-25T05:16:12.280Z,10.15
2023-03-25T05:18:41.881Z,10.88
2023-03-25T05:21:12.861Z,10.18
2023-03-25T05:23:43.409Z,12.20
2023-03-25T05:26:14.190Z,11.75
2023-03-25T05:28:46.301Z,17.02
2023-03-25T05:31:15.815Z,18.85
2023-03-25T05:33:48.041Z,15.05
2023-03-25T05:36:18.521Z,14.70
2023-03-25T05:38:48.521Z,12.48
2023-03-25T05:41:19.297Z,12.93
2023-03-25T05:43:52.165Z,11.00
2023-03-25T05:46:22.114Z,13.68
2023-03-25T05:48:51.680Z,11.73
2023-03-25T05:51:22.516Z,21.05
2023-03-25T05:53:53.435Z,7.97
2023-03-25T05:56:26.312Z,12.30
2023-03-25T05:58:59.203Z,9.07
2023-03-25T06:01:33.318Z,9.77
2023-03-25T06:04:03.995Z,9.73
2023-03-25T06:06:36.245Z,7.95
2023-03-25T06:09:05.974Z,5.15
2023-03-25T06:11:38.722Z,6.20
2023-03-25T06:14:10.994Z,5.47
2023-03-25T06:16:40.516Z,8.13
2023-03-25T06:19:10.058Z,7.43
2023-03-25T06:21:39.664Z,5.13
2023-03-25T06:24:10.402Z,8.82
2023-03-25T06:26:39.968Z,8.25
2023-03-25T06:29:12.281Z,8.57
2023-03-25T06:31:41.916Z,6.53
2023-03-25T06:34:11.705Z,6.85
2023-03-25T06:36:41.434Z,7.22
2023-03-25T06:39:11.376Z,8.00
2023-03-25T06:41:41.137Z,6.72
2023-03-25T06:44:13.223Z,7.57
2023-03-25T06:46:42.849Z,7.43
2023-03-25T06:49:12.626Z,9.45
2023-03-25T06:51:42.142Z,7.63
2023-03-25T06:54:11.668Z,7.95
2023-03-25T06:56:41.258Z,8.05
2023-03-25T06:59:13.389Z,6.35
2023-03-25T07:01:43.253Z,7.40
2023-03-25T07:04:13.233Z,8.57
2023-03-25T07:06:42.857Z,8.15
2023-03-25T07:09:12.438Z,8.13
2023-03-25T07:11:42.032Z,9.70
2023-03-25T07:14:14.178Z,7.97
2023-03-25T07:16:43.759Z,7.88
2023-03-25T07:19:13.289Z,8.27
2023-03-25T07:21:42.884Z,7.95
2023-03-25T07:24:12.476Z,9.10
2023-03-25T07:26:42.060Z,7.97
2023-03-25T07:29:14.223Z,10.18
2023-03-25T07:31:43.890Z,8.75
2023-03-25T07:34:13.461Z,9.95
2023-03-25T07:36:43.061Z,9.25
2023-03-25T07:39:12.656Z,8.20
2023-03-25T07:41:43.161Z,8.75
2023-03-25T07:44:18.226Z,7.68
2023-03-25T07:46:47.977Z,6.50
2023-03-25T07:49:17.852Z,9.23
2023-03-25T07:51:47.889Z,7.18
2023-03-25T07:54:17.434Z,4.55
2023-03-25T07:56:47.008Z,6.18
2023-03-25T07:59:19.371Z,7.25
2023-03-25T08:01:48.926Z,7.00
2023-03-25T08:04:18.456Z,6.18
2023-03-25T08:06:47.975Z,5.55
2023-03-25T08:09:17.450Z,6.68
2023-03-25T08:11:47.222Z,7.82
2023-03-25T08:14:19.306Z,6.05
2023-03-25T08:16:49.223Z,7.03
2023-03-25T08:19:19.100Z,6.28
2023-03-25T08:21:48.644Z,5.00
2023-03-25T08:24:18.177Z,6.18
2023-03-25T08:26:48.279Z,5.85
2023-03-25T08:29:20.410Z,9.73
2023-03-25T08:31:52.621Z,5.43
2023-03-25T08:34:28.709Z,5.65
2023-03-25T08:36:59.472Z,6.88
2023-03-25T08:42:00.266Z,6.35
2023-03-25T08:44:32.336Z,6.80
2023-03-25T08:47:02.034Z,4.72
2023-03-25T08:49:31.674Z,8.65
2023-03-25T08:52:02.107Z,4.78
2023-03-25T08:54:31.928Z,5.85
2023-03-25T08:57:01.576Z,4.63
2023-03-25T08:59:33.750Z,4.90
2023-03-25T09:02:03.796Z,5.85
2023-03-25T09:04:33.640Z,5.10
2023-03-25T09:07:10.512Z,2.95
2023-03-25T09:09:41.472Z,3.22
2023-03-25T09:12:11.732Z,7.95
2023-03-25T09:14:44.020Z,4.30
2023-03-25T09:17:13.537Z,7.18
2023-03-25T09:19:43.060Z,4.47
2023-03-25T09:22:12.644Z,3.47
2023-03-25T09:24:42.340Z,1.75
2023-03-25T09:27:12.314Z,1.75
2023-03-25T09:29:44.593Z,3.40
2023-03-25T09:32:15.190Z,3.22
2023-03-25T09:34:45.107Z,2.00
2023-03-25T09:37:14.956Z,4.32
2023-03-25T09:39:44.534Z,2.78
2023-03-25T09:42:32.501Z,1.90
2023-03-25T09:45:15.500Z,2.00
2023-03-25T09:47:55.294Z,4.10
2023-03-25T09:50:26.375Z,2.88
2023-03-25T09:53:00.472Z,2.65
2023-03-25T09:55:35.203Z,2.03
2023-03-25T09:58:18.846Z,3.53
2023-03-25T10:00:56.930Z,4.95
2023-03-25T10:03:32.026Z,4.00
2023-03-25T10:06:14.792Z,4.23
2023-03-25T10:09:13.844Z,2.45
2023-03-25T10:11:51.043Z,3.65
2023-03-25T10:14:24.760Z,3.20
2023-03-25T10:17:07.994Z,2.60
2023-03-25T10:19:56.853Z,2.83
2023-03-25T10:22:31.360Z,2.38
2023-03-25T10:25:04.212Z,3.42
2023-03-25T10:27:40.031Z,2.38
2023-03-25T10:30:15.960Z,3.67
2023-03-25T10:35:23.143Z,2.85
2023-03-25T10:37:58.091Z,3.33
2023-03-25T10:40:32.643Z,3.40
2023-03-25T10:43:17.139Z,2.28
2023-03-25T10:45:48.591Z,3.72
2023-03-25T10:48:25.688Z,2.20
2023-03-25T10:51:03.798Z,3.90
2023-03-25T10:53:33.623Z,3.55
2023-03-25T10:56:07.814Z,2.47
2023-03-25T10:58:42.445Z,2.35
2023-03-25T11:01:15.704Z,3.08
2023-03-25T11:03:52.153Z,2.53
2023-03-25T11:06:29.864Z,3.17
2023-03-25T11:09:01.616Z,4.70
2023-03-25T11:11:35.938Z,2.78
2023-03-25T11:14:06.124Z,3.05
2023-03-25T11:16:36.976Z,2.63
2023-03-25T11:19:09.767Z,4.00
2023-03-25T11:21:39.290Z,3.80
2023-03-25T11:24:09.823Z,2.95
2023-03-25T11:26:41.913Z,3.75
2023-03-25T11:29:16.165Z,4.88
2023-03-25T11:31:46.510Z,3.70
2023-03-25T11:34:24.282Z,3.72
2023-03-25T11:36:57.817Z,5.20
2023-03-25T11:39:35.820Z,4.40
2023-03-25T11:42:17.885Z,4.13
2023-03-25T11:44:53.843Z,4.88
2023-03-25T11:47:28.355Z,6.07
2023-03-25T11:50:01.178Z,4.85
2023-03-25T11:52:38.321Z,3.17
2023-03-25T11:55:09.029Z,3.70
2023-03-25T11:57:43.264Z,5.40
2023-03-25T12:00:29.558Z,3.83
2023-03-25T12:05:36.701Z,3.38
2023-03-25T12:08:16.451Z,3.80
2023-03-25T12:10:54.055Z,1.88
2023-03-25T12:13:36.082Z,2.00
2023-03-25T12:16:19.868Z,2.70
2023-03-25T12:19:02.737Z,2.33
2023-03-25T12:21:47.669Z,3.95
2023-03-25T12:24:31.292Z,4.70
2023-03-25T12:27:15.852Z,3.20
2023-03-25T12:29:54.821Z,2.15
2023-03-25T12:32:37.448Z,3.40
2023-03-25T12:35:22.489Z,3.45
2023-03-25T12:38:10.689Z,4.78
2023-03-25T12:40:53.949Z,5.20
2023-03-25T12:43:32.226Z,3.20
2023-03-25T12:46:17.698Z,5.70
2023-03-25T12:49:11.114Z,6.00
2023-03-25T12:51:50.235Z,3.60
2023-03-25T12:54:42.378Z,4.88
2023-03-25T12:57:23.509Z,4.72
2023-03-25T13:00:11.277Z,3.95
2023-03-25T13:03:08.966Z,8.32
2023-03-25T13:05:44.541Z,3.80
2023-03-25T13:08:19.700Z,5.72
2023-03-25T13:10:59.867Z,7.17
2023-03-25T13:13:32.691Z,7.80
2023-03-25T13:16:08.086Z,3.33
2023-03-25T13:18:43.771Z,4.82
2023-03-25T13:21:21.935Z,1.60
2023-03-25T13:23:57.432Z,1.80
2023-03-25T13:26:33.158Z,1.80
2023-03-25T13:29:05.702Z,1.58
2023-03-25T13:31:38.323Z,1.88
2023-03-25T13:34:20.856Z,1.70
2023-03-25T13:37:01.858Z,2.67
2023-03-25T13:39:36.050Z,2.55
2023-03-25T13:42:16.316Z,1.50
2023-03-25T13:44:50.849Z,1.70
2023-03-25T13:47:26.420Z,2.47
2023-03-25T13:50:00.862Z,2.08
2023-03-25T13:52:34.635Z,1.50
2023-03-25T13:55:11.678Z,2.78
2023-03-25T13:58:09.448Z,2.42
2023-03-25T14:01:02.096Z,1.98
2023-03-25T14:03:48.127Z,1.77
2023-03-25T14:06:45.446Z,3.38
2023-03-25T14:09:40.125Z,3.13
2023-03-25T14:12:12.373Z,2.88
2023-03-25T14:14:48.070Z,2.85
2023-03-25T14:17:20.534Z,4.50
2023-03-25T14:19:55.456Z,1.88
2023-03-25T14:22:27.269Z,3.97
2023-03-25T14:24:58.335Z,5.30
2023-03-25T14:27:31.386Z,3.97
2023-03-25T14:30:06.120Z,3.80
2023-03-25T14:32:40.981Z,3.85
2023-03-25T14:35:41.649Z,4.35
2023-03-25T14:38:53.271Z,4.53
2023-03-25T14:42:00.292Z,2.38
2023-03-25T14:44:33.256Z,2.88
2023-03-25T14:47:32.288Z,2.60
2023-03-25T14:50:08.656Z,4.95
2023-03-25T14:52:43.490Z,4.35
2023-03-25T14:55:20.362Z,4.35
2023-03-25T14:57:52.509Z,5.15
2023-03-25T15:00:29.438Z,5.57
2023-03-25T15:03:07.691Z,3.95
2023-03-25T15:05:39.283Z,5.28
2023-03-25T15:08:17.872Z,2.45
2023-03-25T15:10:52.848Z,2.63
2023-03-25T15:13:27.580Z,3.60
2023-03-25T15:16:01.657Z,3.20
2023-03-25T15:19:01.399Z,2.72
2023-03-25T15:21:58.171Z,3.72
2023-03-25T15:24:31.976Z,1.73
2023-03-25T15:27:03.989Z,2.90
2023-03-25T15:29:48.329Z,1.77
2023-03-25T15:32:54.986Z,3.17
2023-03-25T15:35:39.956Z,2.57
2023-03-25T15:38:42.535Z,2.65
2023-03-25T15:41:26.353Z,4.47
2023-03-25T15:44:14.797Z,2.58
2023-03-25T15:47:07.959Z,2.83
2023-03-25T15:49:52.086Z,4.47
2023-03-25T15:52:39.382Z,2.92
2023-03-25T15:55:15.313Z,3.80
2023-03-25T15:57:48.917Z,3.33
2023-03-25T16:00:25.441Z,4.50
2023-03-25T16:03:02.599Z,4.75
2023-03-25T16:05:34.049Z,3.50
2023-03-25T16:08:11.526Z,3.13
2023-03-25T16:10:49.757Z,2.22
2023-03-25T16:13:24.143Z,2.92
2023-03-25T16:15:56.551Z,2.08
2023-03-25T16:18:28.648Z,3.03
2023-03-25T16:21:01.344Z,3.65
2023-03-25T16:23:32.959Z,3.38
2023-03-25T16:26:05.252Z,2.10
2023-03-25T16:28:36.912Z,2.38
2023-03-25T16:31:07.441Z,3.78
2023-03-25T16:33:41.892Z,2.10
2023-03-25T16:36:19.027Z,2.97
2023-03-25T16:38:48.582Z,4.07
2023-03-25T16:41:20.796Z,5.68
2023-03-25T16:43:50.474Z,4.40
2023-03-25T16:46:23.762Z,3.22
2023-03-25T16:48:56.476Z,5.28
2023-03-25T16:51:30.076Z,7.13
2023-03-25T16:54:01.189Z,7.35
2023-03-25T16:56:35.148Z,6.07
2023-03-25T16:59:07.899Z,7.75
2023-03-25T17:01:42.763Z,7.28
2023-03-25T17:04:17.917Z,8.43
2023-03-25T17:06:53.156Z,5.63
2023-03-25T17:09:25.820Z,5.63
2023-03-25T17:12:00.786Z,5.10
2023-03-25T17:14:33.889Z,6.05
2023-03-25T17:17:12.560Z,7.53
2023-03-25T17:19:48.593Z,9.52
2023-03-25T17:22:23.916Z,8.93
2023-03-25T17:24:57.557Z,9.33
2023-03-25T17:27:36.807Z,9.38
2023-03-25T17:30:20.364Z,8.35
2023-03-25T17:32:51.227Z,8.73
2023-03-25T17:35:23.555Z,9.35
2023-03-25T17:37:53.548Z,9.25
2023-03-25T17:40:26.246Z,8.20
2023-03-25T17:42:59.869Z,8.23
2023-03-25T17:45:29.460Z,11.45
2023-03-25T17:47:59.177Z,9.13
2023-03-25T17:50:33.218Z,8.68
2023-03-25T17:53:02.745Z,6.82
2023-03-25T17:55:32.326Z,7.55
2023-03-25T17:58:05.128Z,8.32
2023-03-25T18:00:35.949Z,8.13
2023-03-25T18:03:12.795Z,7.80
2023-03-25T18:05:42.453Z,9.10
2023-03-25T18:08:15.627Z,8.23
2023-03-25T18:10:45.699Z,9.85
2023-03-25T18:13:17.850Z,8.18
2023-03-25T18:15:47.544Z,8.88
2023-03-25T18:18:20.152Z,14.45
2023-03-25T18:20:50.748Z,11.88
2023-03-25T18:23:20.884Z,14.43
2023-03-25T18:25:50.776Z,14.30
2023-03-25T18:28:22.945Z,14.30
2023-03-25T18:30:55.489Z,11.68
2023-03-25T18:33:26.418Z,13.30
2023-03-25T18:35:56.563Z,9.40
2023-03-25T18:38:28.319Z,7.05
2023-03-25T18:40:59.236Z,6.70
2023-03-25T18:43:31.506Z,6.93
2023-03-25T18:46:01.103Z,8.73
2023-03-25T18:48:30.676Z,12.15
2023-03-25T18:51:02.236Z,12.05
2023-03-25T18:53:32.321Z,11.63
2023-03-25T18:56:05.033Z,13.73
2023-03-25T18:58:40.019Z,11.25
2023-03-25T19:01:10.498Z,12.25
2023-03-25T19:03:42.817Z,10.77
2023-03-25T19:06:14.945Z,12.98
2023-03-25T19:08:45.816Z,8.82
2023-03-25T19:11:21.720Z,9.63
2023-03-25T19:13:55.650Z,8.00
2023-03-25T19:16:25.228Z,7.45
2023-03-25T19:18:54.801Z,5.93
2023-03-25T19:21:24.382Z,7.00
2023-03-25T19:23:54.220Z,5.88
2023-03-25T19:26:23.879Z,5.88
2023-03-25T19:28:56.137Z,5.45
2023-03-25T19:31:25.736Z,7.35
2023-03-25T19:33:55.276Z,5.20
2023-03-25T19:36:25.955Z,8.25
2023-03-25T19:39:05.730Z,5.95
2023-03-25T19:41:42.225Z,10.38
2023-03-25T19:44:14.635Z,5.57
2023-03-25T19:46:44.173Z,5.05
2023-03-25T19:49:13.717Z,5.32
2023-03-25T19:51:45.336Z,7.05
2023-03-25T19:54:15.499Z,6.32
2023-03-25T19:56:45.180Z,7.50
2023-03-25T19:59:17.531Z,5.55
2023-03-25T20:01:47.264Z,6.05
2023-03-25T20:04:17.084Z,6.03
2023-03-25T20:06:47.837Z,5.60
2023-03-25T20:09:17.425Z,6.32
2023-03-25T20:11:47.953Z,6.05
2023-03-25T20:14:20.145Z,10.45
2023-03-25T20:16:49.735Z,17.30
2023-03-25T20:19:19.308Z,47.20
2023-03-25T20:21:48.825Z,61.88
2023-03-25T20:24:18.421Z,31.63
2023-03-25T20:26:48.517Z,12.23
2023-03-25T20:29:22.446Z,9.00
2023-03-25T20:31:52.957Z,5.97
2023-03-25T20:34:22.545Z,7.18
2023-03-25T20:36:52.320Z,6.10
2023-03-25T20:39:23.208Z,6.60
2023-03-25T20:41:52.979Z,6.35
2023-03-25T20:44:25.190Z,5.53
2023-03-25T20:46:54.768Z,6.88
2023-03-25T20:49:24.480Z,8.02
2023-03-25T20:51:54.749Z,5.40
2023-03-25T20:54:25.341Z,6.15
2023-03-25T20:56:54.940Z,5.57
2023-03-25T20:59:27.375Z,5.28
2023-03-25T21:01:57.138Z,4.65
2023-03-25T21:04:28.117Z,4.63
2023-03-25T21:06:57.733Z,5.90
2023-03-25T21:09:27.456Z,5.63
2023-03-25T21:11:57.003Z,7.50
2023-03-25T21:14:29.197Z,11.93
2023-03-25T21:16:58.777Z,6.78
2023-03-25T21:19:28.382Z,7.97
2023-03-25T21:21:58.278Z,13.57
2023-03-25T21:24:27.837Z,15.68
2023-03-25T21:26:57.361Z,7.20
2023-03-25T21:29:29.572Z,7.30
2023-03-25T21:31:59.268Z,6.00
2023-03-25T21:34:30.441Z,4.88
2023-03-25T21:37:01.026Z,5.35
2023-03-25T21:39:30.625Z,5.22
2023-03-25T21:42:00.184Z,7.05
2023-03-25T21:44:43.153Z,8.13
2023-03-25T21:47:14.583Z,6.57
2023-03-25T21:49:44.071Z,7.45
2023-03-25T21:52:13.809Z,6.05
2023-03-25T21:54:44.000Z,6.82
2023-03-25T21:57:14.055Z,6.50
2023-03-25T21:59:46.552Z,6.78
2023-03-25T22:02:17.310Z,7.82
2023-03-25T22:04:46.861Z,6.95
2023-03-25T22:07:16.605Z,8.75
2023-03-25T22:09:48.157Z,7.13
2023-03-25T22:12:17.762Z,6.55
2023-03-25T22:14:49.890Z,6.18
2023-03-25T22:17:19.457Z,8.15
2023-03-25T22:19:50.803Z,6.43
2023-03-25T22:22:21.746Z,9.57
2023-03-25T22:24:52.288Z,8.40
2023-03-25T22:27:21.853Z,7.32
2023-03-25T22:29:53.907Z,8.93
2023-03-25T22:32:27.343Z,10.45
2023-03-25T22:34:57.225Z,8.35
2023-03-25T22:37:26.780Z,11.80
2023-03-25T22:39:56.326Z,10.75
2023-03-25T22:42:25.919Z,10.80
2023-03-25T22:44:58.040Z,9.00
2023-03-25T22:47:27.561Z,8.90
2023-03-25T22:49:57.126Z,10.93
2023-03-25T22:52:26.664Z,9.18
2023-03-25T22:54:56.344Z,7.28
2023-03-25T22:57:26.073Z,8.88
2023-03-25T22:59:58.158Z,9.75
2023-03-25T23:02:27.645Z,10.05
2023-03-25T23:04:58.527Z,14.50
2023-03-25T23:07:28.154Z,7.05
2023-03-25T23:09:57.683Z,7.75
2023-03-25T23:12:28.945Z,7.43
2023-03-25T23:15:01.183Z,7.20
2023-03-25T23:17:30.918Z,6.40
2023-03-25T23:20:00.554Z,5.57
2023-03-25T23:22:31.059Z,7.38
2023-03-25T23:25:00.684Z,9.15
2023-03-25T23:27:30.799Z,7.00
2023-03-25T23:30:03.262Z,9.90
2023-03-25T23:32:32.857Z,5.13
2023-03-25T23:35:03.486Z,6.78
2023-03-25T23:37:34.312Z,7.50
2023-03-25T23:40:04.522Z,6.00
2023-03-25T23:42:35.407Z,6.82
2023-03-25T23:45:08.842Z,7.28
2023-03-25T23:47:38.385Z,6.82
2023-03-25T23:50:09.277Z,7.40
2023-03-25T23:52:38.827Z,6.10
2023-03-25T23:55:12.488Z,5.50
2023-03-25T23:57:42.037Z,8.35
